Have a Safe July 4th! 

Flight Track Log - Related Links

Times and Time Zones

All times are in EDT time to prevent confusion due to time zone crossing. See the G-EZBG flight status page for this flight to view local times or setup timezone preferences in your user account.

Time Position Orientation Groundspeed Altitude Reporting Facility
EDT Latitude Longitude Course Direction KTS MPH feet Rate Location/Type
Thu 12:40:00 AM 45.1382 9.3638 138° Southeast  Level Estimated
Thu 12:41:00 AM 45.0765 9.4425 138° Southeast  Level Estimated
Thu 12:42:00 AM 45.0146 9.5211 138° Southeast  Level Estimated
Thu 12:43:00 AM 44.9527 9.5994 138° Southeast  Level Estimated
Thu 12:44:00 AM 44.8908 9.6776 138° Southeast  Level Estimated
Thu 12:45:00 AM 44.8288 9.7556 138° Southeast  Level Estimated
Thu 12:45:09 AM 45.6180 8.8300 138° Southeast 238 274 5,400  Level FlightAware ADS-B
Thu 12:45:39 AM 45.5900 8.8690 136° Southeast 274 315 6,700 2,850 Climbing FlightAware ADS-B
Thu 12:45:49 AM 45.5810 8.8820 135° Southeast 279 321 7,300 3,300 Climbing FlightAware ADS-B
Thu 12:46:19 AM 45.5530 8.9220 135° Southeast 289 333 8,900 2,800 Climbing FlightAware ADS-B
Thu 12:47:04 AM 45.5080 8.9850 136° Southeast 327 376 10,800 2,965 Climbing FlightAware ADS-B
Thu 12:47:44 AM 45.4650 9.0450 136° Southeast 331 381 13,100 2,612 Climbing FlightAware ADS-B
Thu 12:48:29 AM 45.4120 9.1200 135° Southeast 373 429 14,500 2,259 Climbing FlightAware ADS-B
Thu 12:49:09 AM 45.3630 9.1900 135° Southeast 382 440 16,300 2,625 Climbing FlightAware ADS-B
Thu 12:49:49 AM 45.3120 9.2610 136° Southeast 394 453 18,000 2,471 Climbing FlightAware ADS-B
Thu 12:50:34 AM 45.2530 9.3430 136° Southeast 408 470 19,800 2,259 Climbing FlightAware ADS-B
Thu 12:51:14 AM 45.1980 9.4190 136° Southeast 419 482 21,200 2,259 Climbing FlightAware ADS-B
Thu 12:51:59 AM 45.1350 9.5070 135° Southeast 426 490 23,000 2,259 Climbing FlightAware ADS-B
Thu 12:52:39 AM 45.0790 9.5850 135° Southeast 433 498 24,400 1,950 Climbing FlightAware ADS-B
Thu 12:53:19 AM 45.0220 9.6640 136° Southeast 442 509 25,600 1,765 Climbing FlightAware ADS-B
Thu 12:54:04 AM 44.9530 9.7590 136° Southeast 455 524 26,900 1,765 Climbing FlightAware ADS-B
Thu 12:54:44 AM 44.8890 9.8460 136° Southeast 460 529 28,100 1,624 Climbing FlightAware ADS-B
Thu 12:55:29 AM 44.8220 9.9380 136° Southeast 469 540 29,200 1,271 Climbing FlightAware ADS-B
Thu 12:56:09 AM 44.7570 10.0260 136° Southeast 482 555 29,900 1,125 Climbing FlightAware ADS-B
Thu 12:56:49 AM 44.6950 10.1120 135° Southeast 492 566 30,700 1,553 Climbing FlightAware ADS-B
Thu 12:57:34 AM 44.6200 10.2140 136° Southeast 487 560 32,100 1,694 Climbing FlightAware ADS-B
Thu 12:58:14 AM 44.5600 10.2940 136° Southeast 486 559 33,100 1,650 Climbing FlightAware ADS-B
Thu 12:58:54 AM 44.4960 10.3800 136° Southeast 482 555 34,300 1,553 Climbing FlightAware ADS-B
Thu 12:59:39 AM 44.4230 10.4770 136° Southeast 482 555 35,300 1,341 Climbing FlightAware ADS-B
Thu 01:00:19 AM 44.3590 10.5640 136° Southeast 481 554 36,200 346 Climbing FlightAware ADS-B
Thu 01:02:00 AM 44.2434 10.6973 140° Southeast  Level Estimated
Thu 01:03:00 AM 44.1747 10.7762 141° Southeast  Level Estimated
Thu 01:04:00 AM 44.1059 10.8549 141° Southeast  Level Estimated
Thu 01:04:34 AM 43.9390 11.0900 141° Southeast 479 551 37,000  Level FlightAware ADS-B
Thu 01:05:14 AM 43.8710 11.1680 140° Southeast 477 549 37,000  Level FlightAware ADS-B
Thu 01:05:59 AM 43.7980 11.2530 140° Southeast 476 548 37,000  Level FlightAware ADS-B
Thu 01:06:39 AM 43.7270 11.3340 140° Southeast 477 549 37,000  Level FlightAware ADS-B
Thu 01:07:19 AM 43.6550 11.4160 141° Southeast 479 551 37,000  Level FlightAware ADS-B
Thu 01:08:04 AM 43.5770 11.5050 140° Southeast 478 550 37,000  Level FlightAware ADS-B
Thu 01:08:44 AM 43.5110 11.5800 140° Southeast 478 550 37,000  Level FlightAware ADS-B
Thu 01:09:29 AM 43.4330 11.6680 141° Southeast 477 549 37,000  Level FlightAware ADS-B
Thu 01:10:09 AM 43.3660 11.7430 141° Southeast 476 548 37,000  Level FlightAware ADS-B
Thu 01:10:49 AM 43.2970 11.8210 141° Southeast 473 544 37,000  Level FlightAware ADS-B
Thu 01:11:34 AM 43.2270 11.8990 141° Southeast 474 545 37,000  Level FlightAware ADS-B
Thu 01:12:14 AM 43.1570 11.9770 141° Southeast 473 544 37,000  Level FlightAware ADS-B
Thu 01:12:54 AM 43.0890 12.0690 135° Southeast 473 544 37,000  Level FlightAware ADS-B
Thu 01:13:39 AM 43.0230 12.1620 134° Southeast 473 544 37,000  Level FlightAware ADS-B
Thu 01:14:19 AM 42.9620 12.2490 134° Southeast 472 543 37,000  Level FlightAware ADS-B
Thu 01:15:04 AM 42.8930 12.3470 134° Southeast 471 542 37,000  Level FlightAware ADS-B
Thu 01:15:44 AM 42.8320 12.4330 134° Southeast 470 541 37,000  Level FlightAware ADS-B
Thu 01:16:24 AM 42.7720 12.5170 134° Southeast 470 541 37,000  Level FlightAware ADS-B
Thu 01:17:09 AM 42.7090 12.6010 136° Southeast 470 541 37,000  Level FlightAware ADS-B
Thu 01:17:49 AM 42.6370 12.6710 144° Southeast 470 541 37,000  Level FlightAware ADS-B
Thu 01:18:34 AM 42.5570 12.7510 144° Southeast 470 541 37,000  Level FlightAware ADS-B
Thu 01:19:14 AM 42.4890 12.8180 144° Southeast 470 541 37,000  Level FlightAware ADS-B
Thu 01:19:59 AM 42.4100 12.8970 144° Southeast 471 542 37,000  Level FlightAware ADS-B
Thu 01:20:39 AM 42.3400 12.9660 144° Southeast 471 542 37,000  Level FlightAware ADS-B
Thu 01:21:14 AM 42.2770 13.0270 144° Southeast 472 543 37,000 -1,114 Level FlightAware ADS-B
Thu 01:22:59 AM 42.0850 13.2150 145° Southeast 476 548 34,400 -1,671 Descending FlightAware ADS-B
Thu 01:23:00 AM 42.1475 13.1475 145° Southeast  Level Estimated
Thu 01:23:34 AM 42.0220 13.2760 144° Southeast 475 547 33,100  Level FlightAware ADS-B
Thu 01:24:24 AM 41.9360 13.3600 144° Southeast 467 537 31,300 -2,188 Descending FlightAware ADS-B
Thu 01:24:59 AM 41.8750 13.4190 144° Southeast 456 525 30,000 -1,760 Descending FlightAware ADS-B
Thu 01:25:39 AM 41.8200 13.4720 144° Southeast 447 514 29,100 -706 Descending FlightAware ADS-B
Thu 01:26:24 AM 41.7500 13.5390 144° Southeast 449 517 29,000 -141 Descending FlightAware ADS-B
Thu 01:27:04 AM 41.6780 13.6080 144° Southeast 447 514 28,900 -695 Descending FlightAware ADS-B
Thu 01:27:59 AM 41.5910 13.6920 144° Southeast 439 505 27,900 -2,280 Descending FlightAware ADS-B
Thu 01:28:44 AM 41.5100 13.7690 145° Southeast 429 494 25,100 -3,000 Descending FlightAware ADS-B
Thu 01:29:29 AM 41.4310 13.8440 145° Southeast 409 471 23,400 -1,624 Descending FlightAware ADS-B
Thu 01:30:09 AM 41.3750 13.8980 144° Southeast 409 471 22,800 -450 Descending FlightAware ADS-B
Thu 01:30:49 AM 41.3230 13.9480 144° Southeast 409 471 22,800 -3,300 Level FlightAware ADS-B
Thu 01:31:29 AM 41.2600 14.0130 142° Southeast 409 471 18,400 -3,032 Descending FlightAware ADS-B
Thu 01:32:24 AM 41.1830 14.1000 140° Southeast 374 430 18,000 -947 Descending FlightAware ADS-B
Thu 01:33:04 AM 41.1380 14.1490 141° Southeast 342 394 16,900 -914 Descending FlightAware ADS-B
Thu 01:34:09 AM 41.0680 14.2290 139° Southeast 325 374 16,400 -286 Descending FlightAware ADS-B
Thu 01:34:49 AM 41.0300 14.2730 139° Southeast 325 374 16,400 -3,120 Level FlightAware ADS-B
Thu 01:34:59 AM 41.0000 14.1970 242° Southwest 300 345 13,800 -4,431 Descending FlightAware ADS-B
Thu 01:35:54 AM 40.9610 14.1170 237° Southwest 293 337 11,600 -1,320 Descending FlightAware ADS-B
Thu 01:36:39 AM 40.9310 14.0550 237° Southwest 293 337 11,600  Level FlightAware ADS-B
Thu 01:37:39 AM 40.8940 13.9790 237° Southwest 293 337 11,600  Level FlightAware ADS-B
Thu 01:40:00 AM 40.8865 14.2723 92° East  Level Estimated
Thu 01:41:00 AM 40.8860 14.2908 92° East  Level Estimated
Thu 01:42:00 AM 40.8860 14.2908 14° North  Level Estimated
Thu 01:43:00 AM 40.8860 14.2908 14° North  Level Estimated
Thu 01:44:00 AM 40.8860 14.2908 14° North  Level Estimated
Thu 01:45:00 AM 40.8860 14.2908 14° North  Level Estimated
Thu 01:46:00 AM 40.8860 14.2908 14° North  Level Estimated
Thu 01:47:00 AM 40.8860 14.2908 14° North  Level Estimated
Thu 01:48:00 AM 40.8860 14.2908 14° North  Level Estimated
Thu 01:49:00 AM 40.8860 14.2908 14° North  Level Estimated
Thu 01:50:00 AM 40.8860 14.2908 14° North  Level Estimated
Thu 01:51:00 AM 40.8860 14.2908 14° North  Level Estimated
Thu 01:52:00 AM 40.8860 14.2908 14° North  Level Estimated
Thu 01:53:00 AM 40.8860 14.2908 14° North  Level Estimated
Thu 01:54:00 AM 40.8860 14.2908 14° North  Level Estimated

Login

Don't have an account? Register now (free) for customized features, flight alerts, and more!